sensor_id;sensor_type;location;lat;lon;timestamp;temperature;humidity
46890;DHT22;32625;51.080;16.970;2024-03-23T00:54:00;10.20;99.90
46890;DHT22;32625;51.080;16.970;2024-03-23T00:56:26;10.20;99.90
46890;DHT22;32625;51.080;16.970;2024-03-23T00:58:52;10.20;99.90
46890;DHT22;32625;51.080;16.970;2024-03-23T01:01:18;10.20;99.90
46890;DHT22;32625;51.080;16.970;2024-03-23T01:03:43;10.20;99.90
46890;DHT22;32625;51.080;16.970;2024-03-23T01:06:10;10.20;99.90
46890;DHT22;32625;51.080;16.970;2024-03-23T01:08:36;10.20;99.90
46890;DHT22;32625;51.080;16.970;2024-03-23T01:11:02;10.20;99.90
46890;DHT22;32625;51.080;16.970;2024-03-23T01:13:28;10.20;99.90
46890;DHT22;32625;51.080;16.970;2024-03-23T01:15:56;10.20;99.90
46890;DHT22;32625;51.080;16.970;2024-03-23T01:18:22;10.20;99.90
46890;DHT22;32625;51.080;16.970;2024-03-23T01:20:49;10.20;99.90
46890;DHT22;32625;51.080;16.970;2024-03-23T01:23:15;10.20;99.90
46890;DHT22;32625;51.080;16.970;2024-03-23T01:25:42;10.20;99.90
46890;DHT22;32625;51.080;16.970;2024-03-23T01:28:08;10.20;99.90
46890;DHT22;32625;51.080;16.970;2024-03-23T01:30:34;10.20;99.90
46890;DHT22;32625;51.080;16.970;2024-03-23T01:33:01;10.10;99.90
46890;DHT22;32625;51.080;16.970;2024-03-23T01:35:29;10.10;99.90
46890;DHT22;32625;51.080;16.970;2024-03-23T01:37:55;10.10;99.90
46890;DHT22;32625;51.080;16.970;2024-03-23T01:40:21;10.10;99.90
46890;DHT22;32625;51.080;16.970;2024-03-23T01:42:57;10.10;99.90
46890;DHT22;32625;51.080;16.970;2024-03-23T01:45:23;10.10;99.90
46890;DHT22;32625;51.080;16.970;2024-03-23T01:47:53;10.10;99.90
46890;DHT22;32625;51.080;16.970;2024-03-23T01:50:20;10.00;99.90
46890;DHT22;32625;51.080;16.970;2024-03-23T01:52:47;10.00;99.90
46890;DHT22;32625;51.080;16.970;2024-03-23T01:55:14;10.00;99.90
46890;DHT22;32625;51.080;16.970;2024-03-23T01:57:40;10.00;99.90
46890;DHT22;32625;51.080;16.970;2024-03-23T02:00:07;9.90;99.90
46890;DHT22;32625;51.080;16.970;2024-03-23T02:02:45;10.00;99.90
46890;DHT22;32625;51.080;16.970;2024-03-23T02:05:12;10.00;99.90
46890;DHT22;32625;51.080;16.970;2024-03-23T02:07:39;9.90;99.90
46890;DHT22;32625;51.080;16.970;2024-03-23T02:10:10;9.90;99.90
46890;DHT22;32625;51.080;16.970;2024-03-23T02:12:37;10.00;99.90
46890;DHT22;32625;51.080;16.970;2024-03-23T02:15:03;9.90;99.90
46890;DHT22;32625;51.080;16.970;2024-03-23T02:17:31;9.90;99.90
46890;DHT22;32625;51.080;16.970;2024-03-23T02:19:58;9.90;99.90
46890;DHT22;32625;51.080;16.970;2024-03-23T02:22:24;9.90;99.90
46890;DHT22;32625;51.080;16.970;2024-03-23T02:24:49;9.90;99.90
46890;DHT22;32625;51.080;16.970;2024-03-23T02:27:15;9.80;99.90
46890;DHT22;32625;51.080;16.970;2024-03-23T02:29:42;9.80;99.90
46890;DHT22;32625;51.080;16.970;2024-03-23T02:32:07;9.80;99.90
46890;DHT22;32625;51.080;16.970;2024-03-23T02:34:35;9.80;99.90
46890;DHT22;32625;51.080;16.970;2024-03-23T02:37:02;9.90;99.90
46890;DHT22;32625;51.080;16.970;2024-03-23T02:39:28;9.90;99.90
46890;DHT22;32625;51.080;16.970;2024-03-23T02:41:54;9.90;99.90
46890;DHT22;32625;51.080;16.970;2024-03-23T02:44:20;9.90;99.90
46890;DHT22;32625;51.080;16.970;2024-03-23T02:46:46;9.90;99.90
46890;DHT22;32625;51.080;16.970;2024-03-23T02:49:13;9.90;99.90
46890;DHT22;32625;51.080;16.970;2024-03-23T02:51:39;9.90;99.90
46890;DHT22;32625;51.080;16.970;2024-03-23T02:54:06;9.90;99.90
46890;DHT22;32625;51.080;16.970;2024-03-23T02:56:32;9.90;99.90
46890;DHT22;32625;51.080;16.970;2024-03-23T02:58:59;9.90;99.90
46890;DHT22;32625;51.080;16.970;2024-03-23T03:01:25;9.90;99.90
46890;DHT22;32625;51.080;16.970;2024-03-23T03:03:52;9.90;99.90
46890;DHT22;32625;51.080;16.970;2024-03-23T03:06:25;9.90;99.90
46890;DHT22;32625;51.080;16.970;2024-03-23T03:08:51;9.80;99.90
46890;DHT22;32625;51.080;16.970;2024-03-23T03:11:17;9.80;99.90
46890;DHT22;32625;51.080;16.970;2024-03-23T03:13:43;9.80;99.90
46890;DHT22;32625;51.080;16.970;2024-03-23T03:16:12;9.80;99.90
46890;DHT22;32625;51.080;16.970;2024-03-23T03:18:38;9.80;99.90
46890;DHT22;32625;51.080;16.970;2024-03-23T03:21:06;9.80;99.90
46890;DHT22;32625;51.080;16.970;2024-03-23T03:23:37;9.80;99.90
46890;DHT22;32625;51.080;16.970;2024-03-23T03:26:04;9.80;99.90
46890;DHT22;32625;51.080;16.970;2024-03-23T03:28:33;9.80;99.90
46890;DHT22;32625;51.080;16.970;2024-03-23T03:31:00;9.80;99.90
46890;DHT22;32625;51.080;16.970;2024-03-23T03:33:27;9.80;99.90
46890;DHT22;32625;51.080;16.970;2024-03-23T03:35:54;9.80;99.90
46890;DHT22;32625;51.080;16.970;2024-03-23T03:38:20;9.80;99.90
46890;DHT22;32625;51.080;16.970;2024-03-23T03:40:46;9.80;99.90
46890;DHT22;32625;51.080;16.970;2024-03-23T03:43:12;9.80;99.90
46890;DHT22;32625;51.080;16.970;2024-03-23T03:45:38;9.80;99.90
46890;DHT22;32625;51.080;16.970;2024-03-23T03:48:04;9.70;99.90
46890;DHT22;32625;51.080;16.970;2024-03-23T03:50:30;9.70;99.90
46890;DHT22;32625;51.080;16.970;2024-03-23T03:52:56;9.70;99.90
46890;DHT22;32625;51.080;16.970;2024-03-23T03:55:22;9.70;99.90
46890;DHT22;32625;51.080;16.970;2024-03-23T03:57:48;9.70;99.90
46890;DHT22;32625;51.080;16.970;2024-03-23T04:00:14;9.70;99.90
46890;DHT22;32625;51.080;16.970;2024-03-23T04:02:40;9.70;99.90
46890;DHT22;32625;51.080;16.970;2024-03-23T04:05:07;9.70;99.90
46890;DHT22;32625;51.080;16.970;2024-03-23T04:07:34;9.70;99.90
46890;DHT22;32625;51.080;16.970;2024-03-23T04:10:00;9.70;99.90
46890;DHT22;32625;51.080;16.970;2024-03-23T04:12:26;9.70;99.90
46890;DHT22;32625;51.080;16.970;2024-03-23T04:14:52;9.70;99.90
46890;DHT22;32625;51.080;16.970;2024-03-23T04:17:19;9.70;99.90
46890;DHT22;32625;51.080;16.970;2024-03-23T04:19:45;9.70;99.90
46890;DHT22;32625;51.080;16.970;2024-03-23T04:22:12;9.70;99.90
46890;DHT22;32625;51.080;16.970;2024-03-23T04:24:38;9.70;99.90
46890;DHT22;32625;51.080;16.970;2024-03-23T04:27:04;9.60;99.90
46890;DHT22;32625;51.080;16.970;2024-03-23T04:29:31;9.60;99.90
46890;DHT22;32625;51.080;16.970;2024-03-23T04:31:57;9.50;99.90
46890;DHT22;32625;51.080;16.970;2024-03-23T04:34:23;9.50;99.90
46890;DHT22;32625;51.080;16.970;2024-03-23T04:36:49;9.50;99.90
46890;DHT22;32625;51.080;16.970;2024-03-23T04:39:15;9.50;99.90
46890;DHT22;32625;51.080;16.970;2024-03-23T04:41:41;9.50;99.90
46890;DHT22;32625;51.080;16.970;2024-03-23T04:44:07;9.50;99.90
46890;DHT22;32625;51.080;16.970;2024-03-23T04:46:33;9.40;99.90
46890;DHT22;32625;51.080;16.970;2024-03-23T04:48:59;9.40;99.90
46890;DHT22;32625;51.080;16.970;2024-03-23T04:51:25;9.40;99.90
46890;DHT22;32625;51.080;16.970;2024-03-23T04:53:52;9.40;99.90
46890;DHT22;32625;51.080;16.970;2024-03-23T04:56:19;9.40;99.90
46890;DHT22;32625;51.080;16.970;2024-03-23T04:58:45;9.40;99.90
46890;DHT22;32625;51.080;16.970;2024-03-23T05:01:11;9.30;99.90
46890;DHT22;32625;51.080;16.970;2024-03-23T05:03:38;9.30;99.90
46890;DHT22;32625;51.080;16.970;2024-03-23T05:06:04;9.30;99.90
46890;DHT22;32625;51.080;16.970;2024-03-23T05:08:31;9.20;99.90
46890;DHT22;32625;51.080;16.970;2024-03-23T05:10:57;9.30;99.90
46890;DHT22;32625;51.080;16.970;2024-03-23T05:13:23;9.20;99.90
46890;DHT22;32625;51.080;16.970;2024-03-23T05:15:55;9.30;99.90
46890;DHT22;32625;51.080;16.970;2024-03-23T05:18:22;9.20;99.90
46890;DHT22;32625;51.080;16.970;2024-03-23T05:20:48;9.20;99.90
46890;DHT22;32625;51.080;16.970;2024-03-23T05:23:14;9.20;99.90
46890;DHT22;32625;51.080;16.970;2024-03-23T05:25:39;9.20;99.90
46890;DHT22;32625;51.080;16.970;2024-03-23T05:28:06;9.20;99.90
46890;DHT22;32625;51.080;16.970;2024-03-23T05:30:32;9.20;99.90
46890;DHT22;32625;51.080;16.970;2024-03-23T05:32:59;9.20;99.90
46890;DHT22;32625;51.080;16.970;2024-03-23T05:35:25;9.20;99.90
46890;DHT22;32625;51.080;16.970;2024-03-23T05:37:51;9.20;99.90
46890;DHT22;32625;51.080;16.970;2024-03-23T05:40:17;9.20;99.90
46890;DHT22;32625;51.080;16.970;2024-03-23T05:42:43;9.20;99.90
46890;DHT22;32625;51.080;16.970;2024-03-23T05:45:08;9.20;99.90
46890;DHT22;32625;51.080;16.970;2024-03-23T05:47:34;9.20;99.90
46890;DHT22;32625;51.080;16.970;2024-03-23T05:50:00;9.20;99.90
46890;DHT22;32625;51.080;16.970;2024-03-23T05:52:28;9.20;99.90
46890;DHT22;32625;51.080;16.970;2024-03-23T05:54:54;9.30;99.90
46890;DHT22;32625;51.080;16.970;2024-03-23T05:57:20;9.30;99.90
46890;DHT22;32625;51.080;16.970;2024-03-23T05:59:46;9.30;99.90
46890;DHT22;32625;51.080;16.970;2024-03-23T06:02:12;9.40;99.90
46890;DHT22;32625;51.080;16.970;2024-03-23T06:04:38;9.40;99.90
46890;DHT22;32625;51.080;16.970;2024-03-23T06:07:04;9.50;99.90
46890;DHT22;32625;51.080;16.970;2024-03-23T06:09:42;9.50;99.90
46890;DHT22;32625;51.080;16.970;2024-03-23T06:12:08;9.50;99.90
46890;DHT22;32625;51.080;16.970;2024-03-23T06:14:34;9.60;99.90
46890;DHT22;32625;51.080;16.970;2024-03-23T06:17:00;9.60;99.90
46890;DHT22;32625;51.080;16.970;2024-03-23T06:19:27;9.70;99.90
46890;DHT22;32625;51.080;16.970;2024-03-23T06:21:56;9.70;99.90
46890;DHT22;32625;51.080;16.970;2024-03-23T06:24:22;9.70;99.90
46890;DHT22;32625;51.080;16.970;2024-03-23T06:26:48;9.80;99.90
46890;DHT22;32625;51.080;16.970;2024-03-23T06:29:15;9.80;99.90
46890;DHT22;32625;51.080;16.970;2024-03-23T06:31:41;9.90;99.90
46890;DHT22;32625;51.080;16.970;2024-03-23T06:34:07;9.90;99.90
46890;DHT22;32625;51.080;16.970;2024-03-23T06:36:33;10.00;99.90
46890;DHT22;32625;51.080;16.970;2024-03-23T06:38:59;10.00;99.90
46890;DHT22;32625;51.080;16.970;2024-03-23T06:41:26;10.10;99.90
46890;DHT22;32625;51.080;16.970;2024-03-23T06:43:52;10.20;99.90
46890;DHT22;32625;51.080;16.970;2024-03-23T06:46:17;10.00;99.90
46890;DHT22;32625;51.080;16.970;2024-03-23T06:48:45;10.00;99.90
46890;DHT22;32625;51.080;16.970;2024-03-23T06:51:11;10.10;99.90
46890;DHT22;32625;51.080;16.970;2024-03-23T06:53:37;10.00;99.90
46890;DHT22;32625;51.080;16.970;2024-03-23T06:56:03;10.00;99.90
46890;DHT22;32625;51.080;16.970;2024-03-23T06:58:29;10.00;99.90
46890;DHT22;32625;51.080;16.970;2024-03-23T07:00:55;10.00;99.90
46890;DHT22;32625;51.080;16.970;2024-03-23T07:03:21;10.00;99.90
46890;DHT22;32625;51.080;16.970;2024-03-23T07:05:47;10.00;99.90
46890;DHT22;32625;51.080;16.970;2024-03-23T07:08:13;10.10;99.90
46890;DHT22;32625;51.080;16.970;2024-03-23T07:10:44;10.10;99.90
46890;DHT22;32625;51.080;16.970;2024-03-23T07:13:10;10.10;99.90
46890;DHT22;32625;51.080;16.970;2024-03-23T07:15:36;10.20;99.90
46890;DHT22;32625;51.080;16.970;2024-03-23T07:18:02;10.20;99.90
46890;DHT22;32625;51.080;16.970;2024-03-23T07:20:28;10.20;99.90
46890;DHT22;32625;51.080;16.970;2024-03-23T07:22:56;10.30;99.90
46890;DHT22;32625;51.080;16.970;2024-03-23T07:25:23;10.30;99.90
46890;DHT22;32625;51.080;16.970;2024-03-23T07:27:50;10.40;99.90
46890;DHT22;32625;51.080;16.970;2024-03-23T07:30:16;10.50;99.90
46890;DHT22;32625;51.080;16.970;2024-03-23T07:32:44;10.60;99.90
46890;DHT22;32625;51.080;16.970;2024-03-23T07:35:11;10.60;99.90
46890;DHT22;32625;51.080;16.970;2024-03-23T07:37:37;10.70;99.90
46890;DHT22;32625;51.080;16.970;2024-03-23T07:40:03;10.70;99.90
46890;DHT22;32625;51.080;16.970;2024-03-23T07:42:29;10.80;99.90
46890;DHT22;32625;51.080;16.970;2024-03-23T07:44:55;10.90;99.90
46890;DHT22;32625;51.080;16.970;2024-03-23T07:47:22;11.00;99.90
46890;DHT22;32625;51.080;16.970;2024-03-23T07:49:48;11.00;99.90
46890;DHT22;32625;51.080;16.970;2024-03-23T07:52:14;11.10;99.90
46890;DHT22;32625;51.080;16.970;2024-03-23T07:54:40;11.30;99.90
46890;DHT22;32625;51.080;16.970;2024-03-23T07:57:07;11.40;99.90
46890;DHT22;32625;51.080;16.970;2024-03-23T07:59:33;11.50;99.90
46890;DHT22;32625;51.080;16.970;2024-03-23T08:02:00;11.70;99.90
46890;DHT22;32625;51.080;16.970;2024-03-23T08:04:27;11.80;99.90
46890;DHT22;32625;51.080;16.970;2024-03-23T08:06:53;11.80;99.90
46890;DHT22;32625;51.080;16.970;2024-03-23T08:09:19;11.90;99.90
46890;DHT22;32625;51.080;16.970;2024-03-23T08:11:45;12.00;99.90
46890;DHT22;32625;51.080;16.970;2024-03-23T08:14:12;12.00;99.90
46890;DHT22;32625;51.080;16.970;2024-03-23T08:16:39;12.00;99.90
46890;DHT22;32625;51.080;16.970;2024-03-23T08:19:05;12.00;99.90
46890;DHT22;32625;51.080;16.970;2024-03-23T08:21:31;12.10;99.90
46890;DHT22;32625;51.080;16.970;2024-03-23T08:23:56;12.10;99.90
46890;DHT22;32625;51.080;16.970;2024-03-23T08:26:22;12.10;99.90
46890;DHT22;32625;51.080;16.970;2024-03-23T08:28:48;12.30;99.90
46890;DHT22;32625;51.080;16.970;2024-03-23T08:31:14;12.30;99.90
46890;DHT22;32625;51.080;16.970;2024-03-23T08:33:40;12.40;99.90
46890;DHT22;32625;51.080;16.970;2024-03-23T08:36:10;12.40;99.90
46890;DHT22;32625;51.080;16.970;2024-03-23T08:38:40;12.50;99.90
46890;DHT22;32625;51.080;16.970;2024-03-23T08:41:08;12.60;99.90
46890;DHT22;32625;51.080;16.970;2024-03-23T08:43:38;12.80;99.90
46890;DHT22;32625;51.080;16.970;2024-03-23T08:46:15;12.90;99.90
46890;DHT22;32625;51.080;16.970;2024-03-23T08:48:43;12.90;99.90
46890;DHT22;32625;51.080;16.970;2024-03-23T08:51:12;13.00;99.90
46890;DHT22;32625;51.080;16.970;2024-03-23T08:53:38;13.00;99.90
46890;DHT22;32625;51.080;16.970;2024-03-23T08:56:06;13.00;99.90
46890;DHT22;32625;51.080;16.970;2024-03-23T08:58:33;13.10;99.90
46890;DHT22;32625;51.080;16.970;2024-03-23T09:01:08;13.00;99.90
46890;DHT22;32625;51.080;16.970;2024-03-23T09:03:35;13.10;99.90
46890;DHT22;32625;51.080;16.970;2024-03-23T09:06:06;13.00;99.90
46890;DHT22;32625;51.080;16.970;2024-03-23T09:08:32;13.00;99.90
46890;DHT22;32625;51.080;16.970;2024-03-23T09:11:03;12.90;99.90
46890;DHT22;32625;51.080;16.970;2024-03-23T09:13:33;12.90;99.90
46890;DHT22;32625;51.080;16.970;2024-03-23T09:15:59;12.90;99.90
46890;DHT22;32625;51.080;16.970;2024-03-23T09:18:25;12.80;99.90
46890;DHT22;32625;51.080;16.970;2024-03-23T09:20:51;12.80;99.90
46890;DHT22;32625;51.080;16.970;2024-03-23T09:23:20;12.70;99.90
46890;DHT22;32625;51.080;16.970;2024-03-23T09:25:47;12.70;99.90
46890;DHT22;32625;51.080;16.970;2024-03-23T09:28:13;12.70;99.90
46890;DHT22;32625;51.080;16.970;2024-03-23T09:30:39;12.70;99.90
46890;DHT22;32625;51.080;16.970;2024-03-23T09:33:11;12.70;99.90
46890;DHT22;32625;51.080;16.970;2024-03-23T09:35:42;12.60;99.90
46890;DHT22;32625;51.080;16.970;2024-03-23T09:38:08;12.70;99.90
46890;DHT22;32625;51.080;16.970;2024-03-23T09:40:41;12.70;99.90
46890;DHT22;32625;51.080;16.970;2024-03-23T09:43:08;12.80;99.90
46890;DHT22;32625;51.080;16.970;2024-03-23T09:45:39;12.80;99.90
46890;DHT22;32625;51.080;16.970;2024-03-23T09:48:09;12.90;99.90
46890;DHT22;32625;51.080;16.970;2024-03-23T09:50:38;13.00;99.90
46890;DHT22;32625;51.080;16.970;2024-03-23T09:53:10;13.20;99.90
46890;DHT22;32625;51.080;16.970;2024-03-23T09:55:37;13.20;99.90
46890;DHT22;32625;51.080;16.970;2024-03-23T09:58:04;13.30;99.90
46890;DHT22;32625;51.080;16.970;2024-03-23T10:00:35;13.30;99.90
46890;DHT22;32625;51.080;16.970;2024-03-23T10:03:01;13.30;99.90
46890;DHT22;32625;51.080;16.970;2024-03-23T10:05:29;13.40;99.90
46890;DHT22;32625;51.080;16.970;2024-03-23T10:07:55;13.50;99.90
46890;DHT22;32625;51.080;16.970;2024-03-23T10:10:21;13.60;99.90
46890;DHT22;32625;51.080;16.970;2024-03-23T10:12:49;13.70;99.90
46890;DHT22;32625;51.080;16.970;2024-03-23T10:15:19;13.80;99.90
46890;DHT22;32625;51.080;16.970;2024-03-23T10:17:46;13.90;99.90
46890;DHT22;32625;51.080;16.970;2024-03-23T10:20:13;14.10;99.90
46890;DHT22;32625;51.080;16.970;2024-03-23T10:22:39;14.20;99.90
46890;DHT22;32625;51.080;16.970;2024-03-23T10:25:10;14.30;99.90
46890;DHT22;32625;51.080;16.970;2024-03-23T10:27:36;14.40;99.90
46890;DHT22;32625;51.080;16.970;2024-03-23T10:30:12;14.60;99.90
46890;DHT22;32625;51.080;16.970;2024-03-23T10:32:38;14.60;99.90
46890;DHT22;32625;51.080;16.970;2024-03-23T10:37:43;14.70;99.90
46890;DHT22;32625;51.080;16.970;2024-03-23T10:40:11;14.80;99.90
46890;DHT22;32625;51.080;16.970;2024-03-23T10:42:38;14.80;99.90
46890;DHT22;32625;51.080;16.970;2024-03-23T10:45:04;14.80;99.90
46890;DHT22;32625;51.080;16.970;2024-03-23T10:47:32;14.90;99.90
46890;DHT22;32625;51.080;16.970;2024-03-23T10:49:58;15.00;99.90
46890;DHT22;32625;51.080;16.970;2024-03-23T10:52:24;15.10;99.90
46890;DHT22;32625;51.080;16.970;2024-03-23T10:54:51;15.10;99.90
46890;DHT22;32625;51.080;16.970;2024-03-23T10:57:20;15.10;99.90
46890;DHT22;32625;51.080;16.970;2024-03-23T10:59:47;15.10;99.90
46890;DHT22;32625;51.080;16.970;2024-03-23T11:02:20;15.10;99.90
46890;DHT22;32625;51.080;16.970;2024-03-23T11:04:46;15.00;99.90
46890;DHT22;32625;51.080;16.970;2024-03-23T11:09:51;15.10;99.90
46890;DHT22;32625;51.080;16.970;2024-03-23T11:15:00;15.10;99.90
46890;DHT22;32625;51.080;16.970;2024-03-23T11:17:27;15.10;99.90
46890;DHT22;32625;51.080;16.970;2024-03-23T11:20:04;15.10;99.90
46890;DHT22;32625;51.080;16.970;2024-03-23T11:25:23;15.20;99.90
46890;DHT22;32625;51.080;16.970;2024-03-23T11:27:51;15.20;99.90
46890;DHT22;32625;51.080;16.970;2024-03-23T11:30:20;15.30;99.90
46890;DHT22;32625;51.080;16.970;2024-03-23T11:32:51;15.30;99.90
46890;DHT22;32625;51.080;16.970;2024-03-23T11:35:34;15.50;99.90
46890;DHT22;32625;51.080;16.970;2024-03-23T11:38:07;15.60;98.60
46890;DHT22;32625;51.080;16.970;2024-03-23T11:40:39;15.80;99.10
46890;DHT22;32625;51.080;16.970;2024-03-23T11:43:10;15.80;95.90
46890;DHT22;32625;51.080;16.970;2024-03-23T11:45:39;15.90;95.80
46890;DHT22;32625;51.080;16.970;2024-03-23T11:48:13;15.80;93.30
46890;DHT22;32625;51.080;16.970;2024-03-23T11:50:44;15.70;92.70
46890;DHT22;32625;51.080;16.970;2024-03-23T11:55:44;15.70;93.60
46890;DHT22;32625;51.080;16.970;2024-03-23T11:58:11;15.60;92.40
46890;DHT22;32625;51.080;16.970;2024-03-23T12:00:38;15.60;92.70
46890;DHT22;32625;51.080;16.970;2024-03-23T12:03:05;15.50;92.50
46890;DHT22;32625;51.080;16.970;2024-03-23T12:05:32;15.50;93.70
46890;DHT22;32625;51.080;16.970;2024-03-23T12:08:18;15.50;96.20
46890;DHT22;32625;51.080;16.970;2024-03-23T12:10:47;15.30;98.10
46890;DHT22;32625;51.080;16.970;2024-03-23T12:13:15;15.20;95.60
46890;DHT22;32625;51.080;16.970;2024-03-23T12:15:46;15.10;93.50
46890;DHT22;32625;51.080;16.970;2024-03-23T12:18:13;15.10;92.30
46890;DHT22;32625;51.080;16.970;2024-03-23T12:20:39;15.10;91.60
46890;DHT22;32625;51.080;16.970;2024-03-23T12:23:10;15.10;91.40
46890;DHT22;32625;51.080;16.970;2024-03-23T12:25:39;15.00;91.80
46890;DHT22;32625;51.080;16.970;2024-03-23T12:28:06;15.10;92.60
46890;DHT22;32625;51.080;16.970;2024-03-23T12:30:34;15.00;92.50
46890;DHT22;32625;51.080;16.970;2024-03-23T12:33:01;15.00;91.60
46890;DHT22;32625;51.080;16.970;2024-03-23T12:35:27;15.00;91.70
46890;DHT22;32625;51.080;16.970;2024-03-23T12:37:53;15.00;91.90
46890;DHT22;32625;51.080;16.970;2024-03-23T12:40:19;14.90;91.50
46890;DHT22;32625;51.080;16.970;2024-03-23T12:42:45;14.90;91.00
46890;DHT22;32625;51.080;16.970;2024-03-23T12:45:11;14.90;91.60
46890;DHT22;32625;51.080;16.970;2024-03-23T12:47:37;14.90;91.80
46890;DHT22;32625;51.080;16.970;2024-03-23T12:50:03;14.90;91.60
46890;DHT22;32625;51.080;16.970;2024-03-23T12:52:29;14.90;90.20
46890;DHT22;32625;51.080;16.970;2024-03-23T12:54:56;14.90;90.20
46890;DHT22;32625;51.080;16.970;2024-03-23T12:57:26;14.80;90.90
46890;DHT22;32625;51.080;16.970;2024-03-23T12:59:53;14.80;91.10
46890;DHT22;32625;51.080;16.970;2024-03-23T13:02:19;14.80;90.70
46890;DHT22;32625;51.080;16.970;2024-03-23T13:04:53;14.70;90.30
46890;DHT22;32625;51.080;16.970;2024-03-23T13:07:20;14.40;92.60
46890;DHT22;32625;51.080;16.970;2024-03-23T13:09:46;14.10;93.70
46890;DHT22;32625;51.080;16.970;2024-03-23T13:12:12;13.80;92.80
46890;DHT22;32625;51.080;16.970;2024-03-23T13:14:41;13.60;93.30
46890;DHT22;32625;51.080;16.970;2024-03-23T13:17:08;13.30;94.70
46890;DHT22;32625;51.080;16.970;2024-03-23T13:19:34;13.00;96.80
46890;DHT22;32625;51.080;16.970;2024-03-23T13:22:01;12.90;99.40
46890;DHT22;32625;51.080;16.970;2024-03-23T13:24:30;12.80;99.90
46890;DHT22;32625;51.080;16.970;2024-03-23T13:26:57;12.50;99.90
46890;DHT22;32625;51.080;16.970;2024-03-23T13:29:23;12.50;99.90
46890;DHT22;32625;51.080;16.970;2024-03-23T13:31:50;12.30;99.90
46890;DHT22;32625;51.080;16.970;2024-03-23T13:34:17;12.20;99.90
46890;DHT22;32625;51.080;16.970;2024-03-23T13:36:44;12.10;99.90
46890;DHT22;32625;51.080;16.970;2024-03-23T13:39:10;12.10;99.90
46890;DHT22;32625;51.080;16.970;2024-03-23T13:41:42;12.10;99.90
46890;DHT22;32625;51.080;16.970;2024-03-23T13:44:09;12.20;99.90
46890;DHT22;32625;51.080;16.970;2024-03-23T13:46:39;12.10;99.40
46890;DHT22;32625;51.080;16.970;2024-03-23T13:49:05;12.00;99.60
46890;DHT22;32625;51.080;16.970;2024-03-23T13:51:32;11.90;99.90
46890;DHT22;32625;51.080;16.970;2024-03-23T13:53:58;11.80;99.90
46890;DHT22;32625;51.080;16.970;2024-03-23T13:56:27;11.70;99.90
46890;DHT22;32625;51.080;16.970;2024-03-23T13:58:57;11.40;99.90
46890;DHT22;32625;51.080;16.970;2024-03-23T14:01:24;11.30;99.90
46890;DHT22;32625;51.080;16.970;2024-03-23T14:03:50;11.00;99.90
46890;DHT22;32625;51.080;16.970;2024-03-23T14:06:16;10.80;99.90
46890;DHT22;32625;51.080;16.970;2024-03-23T14:08:42;10.60;99.90
46890;DHT22;32625;51.080;16.970;2024-03-23T14:11:09;10.40;99.90
46890;DHT22;32625;51.080;16.970;2024-03-23T14:13:36;10.20;99.90
46890;DHT22;32625;51.080;16.970;2024-03-23T14:16:02;10.10;99.90
46890;DHT22;32625;51.080;16.970;2024-03-23T14:18:28;9.90;99.90
46890;DHT22;32625;51.080;16.970;2024-03-23T14:20:59;9.80;99.90
46890;DHT22;32625;51.080;16.970;2024-03-23T14:23:28;9.60;99.90
46890;DHT22;32625;51.080;16.970;2024-03-23T14:26:01;9.60;99.90
46890;DHT22;32625;51.080;16.970;2024-03-23T14:28:27;9.60;99.90
46890;DHT22;32625;51.080;16.970;2024-03-23T14:30:56;9.40;99.90
46890;DHT22;32625;51.080;16.970;2024-03-23T14:33:22;9.40;99.90
46890;DHT22;32625;51.080;16.970;2024-03-23T14:35:55;9.40;99.90
46890;DHT22;32625;51.080;16.970;2024-03-23T14:38:23;9.40;99.90
46890;DHT22;32625;51.080;16.970;2024-03-23T14:40:49;9.40;99.90
46890;DHT22;32625;51.080;16.970;2024-03-23T14:43:15;9.20;99.90
46890;DHT22;32625;51.080;16.970;2024-03-23T14:46:11;9.20;99.90
46890;DHT22;32625;51.080;16.970;2024-03-23T14:48:38;9.10;99.90
46890;DHT22;32625;51.080;16.970;2024-03-23T14:51:04;9.10;99.90
46890;DHT22;32625;51.080;16.970;2024-03-23T14:53:35;9.00;99.90
46890;DHT22;32625;51.080;16.970;2024-03-23T14:56:02;8.90;99.90
46890;DHT22;32625;51.080;16.970;2024-03-23T14:58:29;8.90;99.90
46890;DHT22;32625;51.080;16.970;2024-03-23T15:01:06;8.70;99.90
46890;DHT22;32625;51.080;16.970;2024-03-23T15:03:38;8.50;99.90
46890;DHT22;32625;51.080;16.970;2024-03-23T15:06:06;8.40;99.90
46890;DHT22;32625;51.080;16.970;2024-03-23T15:08:32;8.30;99.90
46890;DHT22;32625;51.080;16.970;2024-03-23T15:11:01;8.30;99.90
46890;DHT22;32625;51.080;16.970;2024-03-23T15:13:37;8.20;99.90
46890;DHT22;32625;51.080;16.970;2024-03-23T15:16:04;8.20;99.90
46890;DHT22;32625;51.080;16.970;2024-03-23T15:18:31;8.10;99.90
46890;DHT22;32625;51.080;16.970;2024-03-23T15:21:02;8.00;99.90
46890;DHT22;32625;51.080;16.970;2024-03-23T15:23:31;8.00;99.90
46890;DHT22;32625;51.080;16.970;2024-03-23T15:25:58;7.90;99.90
46890;DHT22;32625;51.080;16.970;2024-03-23T15:28:25;7.90;99.90
46890;DHT22;32625;51.080;16.970;2024-03-23T15:31:04;7.80;99.90
46890;DHT22;32625;51.080;16.970;2024-03-23T15:33:30;7.80;99.90
46890;DHT22;32625;51.080;16.970;2024-03-23T15:36:00;7.80;99.90
46890;DHT22;32625;51.080;16.970;2024-03-23T15:38:26;7.70;99.90
46890;DHT22;32625;51.080;16.970;2024-03-23T15:40:52;7.80;99.90
46890;DHT22;32625;51.080;16.970;2024-03-23T15:43:19;7.80;99.90
46890;DHT22;32625;51.080;16.970;2024-03-23T15:45:57;7.90;99.90
46890;DHT22;32625;51.080;16.970;2024-03-23T15:48:29;7.90;99.90
46890;DHT22;32625;51.080;16.970;2024-03-23T15:51:01;8.00;99.90
46890;DHT22;32625;51.080;16.970;2024-03-23T15:53:27;8.00;99.90
46890;DHT22;32625;51.080;16.970;2024-03-23T15:55:54;7.80;99.90
46890;DHT22;32625;51.080;16.970;2024-03-23T15:58:21;7.80;99.90
46890;DHT22;32625;51.080;16.970;2024-03-23T16:03:28;7.80;99.90
46890;DHT22;32625;51.080;16.970;2024-03-23T16:05:59;7.80;99.90
46890;DHT22;32625;51.080;16.970;2024-03-23T16:08:26;7.80;99.90
46890;DHT22;32625;51.080;16.970;2024-03-23T16:10:52;7.80;99.90
46890;DHT22;32625;51.080;16.970;2024-03-23T16:13:19;7.80;99.90
46890;DHT22;32625;51.080;16.970;2024-03-23T16:15:45;7.80;99.90
46890;DHT22;32625;51.080;16.970;2024-03-23T16:18:11;7.80;99.90
46890;DHT22;32625;51.080;16.970;2024-03-23T16:20:39;7.80;99.90
46890;DHT22;32625;51.080;16.970;2024-03-23T16:23:05;7.60;99.90
46890;DHT22;32625;51.080;16.970;2024-03-23T16:25:31;7.60;99.90
46890;DHT22;32625;51.080;16.970;2024-03-23T16:27:57;7.60;99.90
46890;DHT22;32625;51.080;16.970;2024-03-23T16:30:23;7.50;99.90
46890;DHT22;32625;51.080;16.970;2024-03-23T16:32:49;7.50;99.90